createdAt,value
2023-02-07T00:02:56.730Z,16.02
2023-02-07T00:07:53.630Z,14.88
2023-02-07T00:12:50.459Z,15.45
2023-02-07T00:17:47.350Z,14.82
2023-02-07T00:22:45.380Z,17.15
2023-02-07T00:27:42.249Z,15.32
2023-02-07T00:32:39.064Z,16.35
2023-02-07T00:37:36.061Z,17.23
2023-02-07T00:42:34.429Z,15.07
2023-02-07T00:47:31.356Z,17.02
2023-02-07T00:52:28.189Z,18.40
2023-02-07T00:57:25.042Z,18.27
2023-02-07T01:02:22.725Z,16.85
2023-02-07T01:07:19.852Z,18.90
2023-02-07T01:12:16.791Z,15.95
2023-02-07T01:17:13.697Z,16.25
2023-02-07T01:22:11.297Z,19.23
2023-02-07T01:27:08.076Z,17.70
2023-02-07T01:32:05.038Z,19.30
2023-02-07T01:37:02.013Z,19.33
2023-02-07T01:42:00.105Z,18.25
2023-02-07T01:46:57.356Z,22.50
2023-02-07T01:51:57.970Z,20.35
2023-02-07T01:56:59.360Z,19.58
2023-02-07T02:02:00.006Z,20.52
2023-02-07T02:06:57.685Z,19.52
2023-02-07T02:12:18.186Z,20.33
2023-02-07T02:17:25.522Z,19.85
2023-02-07T02:22:51.986Z,22.20
2023-02-07T02:28:17.261Z,17.67
2023-02-07T02:33:46.569Z,23.73
2023-02-07T02:38:50.478Z,21.02
2023-02-07T02:43:53.065Z,22.48
2023-02-07T02:48:53.429Z,22.20
2023-02-07T02:53:52.484Z,20.38
2023-02-07T02:59:14.857Z,23.50
2023-02-07T03:04:32.688Z,20.58
2023-02-07T03:09:43.076Z,21.27
2023-02-07T03:14:48.654Z,24.20
2023-02-07T03:19:53.737Z,20.00
2023-02-07T03:24:53.631Z,21.93
2023-02-07T03:29:57.011Z,21.67
2023-02-07T03:34:58.421Z,27.85
2023-02-07T03:39:56.165Z,23.58
2023-02-07T03:44:55.794Z,24.10
2023-02-07T03:49:52.726Z,22.52
2023-02-07T03:54:50.477Z,20.85
2023-02-07T03:59:47.367Z,23.65
2023-02-07T04:04:44.514Z,22.10
2023-02-07T04:09:41.701Z,18.42
2023-02-07T04:14:39.307Z,23.98
2023-02-07T04:19:36.208Z,26.15
2023-02-07T04:24:35.329Z,20.15
2023-02-07T04:29:32.372Z,20.23
2023-02-07T04:34:29.979Z,24.67
2023-02-07T04:39:27.003Z,22.55
2023-02-07T04:44:23.904Z,22.45
2023-02-07T04:49:20.968Z,27.23
2023-02-07T04:54:18.625Z,31.98
2023-02-07T04:59:15.588Z,25.42
2023-02-07T05:04:12.498Z,26.20
2023-02-07T05:09:09.368Z,29.35
2023-02-07T05:14:07.033Z,26.10
2023-02-07T05:19:04.822Z,24.27
2023-02-07T05:24:01.740Z,12.38
2023-02-07T05:28:58.699Z,21.08
2023-02-07T05:33:56.378Z,24.65
2023-02-07T05:38:53.545Z,18.27
2023-02-07T05:43:50.527Z,15.68
2023-02-07T05:48:47.804Z,15.02
2023-02-07T05:53:45.459Z,13.90
2023-02-07T05:58:42.923Z,11.65
2023-02-07T06:03:39.814Z,12.43
2023-02-07T06:08:38.140Z,10.55
2023-02-07T06:13:35.848Z,9.73
2023-02-07T06:18:34.478Z,12.57
2023-02-07T06:23:31.363Z,17.05
2023-02-07T06:28:28.655Z,18.58
2023-02-07T06:33:26.333Z,23.40
2023-02-07T06:38:23.261Z,22.88
2023-02-07T06:43:20.237Z,26.67
2023-02-07T06:48:17.226Z,31.95
2023-02-07T06:53:14.727Z,31.63
2023-02-07T06:58:11.700Z,35.55
2023-02-07T07:03:12.915Z,32.90
2023-02-07T07:08:14.871Z,31.60
2023-02-07T07:13:12.814Z,28.83
2023-02-07T07:18:09.825Z,33.30
2023-02-07T07:23:06.892Z,30.05
2023-02-07T07:28:04.228Z,24.77
2023-02-07T07:33:01.866Z,27.17
2023-02-07T07:38:03.575Z,25.15
2023-02-07T07:43:06.920Z,26.13
2023-02-07T07:48:18.556Z,20.57
2023-02-07T07:53:16.836Z,18.48
2023-02-07T07:58:13.676Z,16.20
2023-02-07T08:03:12.182Z,17.05
2023-02-07T08:08:10.110Z,15.88
2023-02-07T08:13:07.310Z,12.15
2023-02-07T08:18:04.537Z,9.77
2023-02-07T08:23:04.223Z,11.32
2023-02-07T08:28:04.418Z,12.32
2023-02-07T08:33:01.850Z,10.23
2023-02-07T08:37:58.692Z,10.20
2023-02-07T08:42:55.719Z,11.88
2023-02-07T08:47:55.061Z,9.38
2023-02-07T08:52:54.352Z,8.30
2023-02-07T08:57:54.410Z,8.55
2023-02-07T09:02:51.800Z,16.90
2023-02-07T09:07:49.751Z,10.07
2023-02-07T09:12:47.723Z,12.82
2023-02-07T09:17:47.178Z,10.23
2023-02-07T09:23:03.100Z,10.70
2023-02-07T09:28:01.635Z,13.95
2023-02-07T09:32:59.528Z,11.93
2023-02-07T09:37:58.456Z,10.57
2023-02-07T09:43:01.303Z,11.43
2023-02-07T09:48:04.220Z,9.05
2023-02-07T09:53:06.743Z,14.45
2023-02-07T09:58:09.681Z,13.60
2023-02-07T10:03:15.123Z,9.07
2023-02-07T10:08:15.299Z,11.88
2023-02-07T10:13:38.009Z,9.35
2023-02-07T10:18:45.151Z,9.75
2023-02-07T10:23:57.137Z,9.60
2023-02-07T10:29:13.474Z,11.60
2023-02-07T10:34:18.632Z,11.25
2023-02-07T10:39:21.771Z,11.27
2023-02-07T10:44:20.221Z,14.93
2023-02-07T10:49:25.356Z,12.27
2023-02-07T10:54:23.927Z,10.77
2023-02-07T10:59:34.918Z,13.18
2023-02-07T11:04:38.236Z,12.60
2023-02-07T11:09:37.148Z,13.30
2023-02-07T11:14:36.313Z,10.13
2023-02-07T11:19:33.438Z,9.02
2023-02-07T11:24:35.707Z,14.55
2023-02-07T11:29:39.977Z,10.40
2023-02-07T11:34:45.691Z,9.55
2023-02-07T11:39:44.095Z,8.80
2023-02-07T11:44:42.349Z,9.85
2023-02-07T11:49:43.357Z,9.73
2023-02-07T11:54:41.674Z,9.35
2023-02-07T11:59:46.884Z,9.05
2023-02-07T12:04:52.684Z,9.35
2023-02-07T12:14:54.600Z,11.35
2023-02-07T12:19:56.007Z,11.43
2023-02-07T12:24:57.975Z,7.05
2023-02-07T12:30:02.126Z,8.63
2023-02-07T12:35:05.497Z,7.47
2023-02-07T12:40:10.144Z,8.52
2023-02-07T12:45:14.423Z,7.55
2023-02-07T12:50:41.937Z,6.60
2023-02-07T12:55:49.821Z,8.38
2023-02-07T13:00:57.345Z,9.48
2023-02-07T13:06:06.548Z,8.27
2023-02-07T13:11:15.552Z,9.40
2023-02-07T13:16:18.349Z,5.80
2023-02-07T13:21:23.961Z,7.90
2023-02-07T13:26:24.419Z,4.57
2023-02-07T13:31:30.262Z,6.18
2023-02-07T13:36:43.799Z,4.80
2023-02-07T13:41:52.892Z,8.55
2023-02-07T13:47:12.729Z,6.38
2023-02-07T13:52:24.039Z,5.45
2023-02-07T13:57:55.564Z,5.28
2023-02-07T14:02:55.278Z,5.70
2023-02-07T14:08:00.212Z,9.40
2023-02-07T14:12:59.848Z,7.28
2023-02-07T14:18:00.884Z,8.45
2023-02-07T14:23:14.312Z,9.63
2023-02-07T14:28:32.856Z,7.78
2023-02-07T14:33:34.231Z,5.50
2023-02-07T14:38:36.469Z,7.32
2023-02-07T14:43:41.833Z,8.10
2023-02-07T14:48:51.717Z,7.38
2023-02-07T14:54:05.460Z,11.85
2023-02-07T14:59:02.875Z,10.77
2023-02-07T15:04:08.677Z,8.15
2023-02-07T15:09:06.095Z,11.52
2023-02-07T15:14:06.660Z,8.45
2023-02-07T15:19:12.611Z,9.65
2023-02-07T15:24:18.172Z,10.70
2023-02-07T15:29:21.140Z,7.78
2023-02-07T15:34:23.451Z,9.25
2023-02-07T15:39:23.053Z,10.23
2023-02-07T15:44:22.202Z,7.60
2023-02-07T15:49:28.867Z,12.48
2023-02-07T15:54:27.287Z,13.88
2023-02-07T15:59:27.828Z,10.60
2023-02-07T16:04:35.074Z,11.68
2023-02-07T16:09:38.568Z,10.57
2023-02-07T16:14:40.723Z,10.30
2023-02-07T16:19:45.878Z,10.43
2023-02-07T16:24:46.430Z,9.57
2023-02-07T16:29:44.560Z,13.48
2023-02-07T16:34:58.639Z,11.00
2023-02-07T16:39:56.511Z,10.63
2023-02-07T16:44:54.856Z,11.95
2023-02-07T16:49:55.690Z,12.75
2023-02-07T16:54:53.955Z,17.90
2023-02-07T16:59:53.518Z,16.35
2023-02-07T17:05:06.543Z,15.43
2023-02-07T17:10:18.048Z,16.05
2023-02-07T17:15:15.404Z,15.00
2023-02-07T17:20:22.444Z,15.35
2023-02-07T17:25:21.904Z,18.38
2023-02-07T17:30:24.089Z,16.83
2023-02-07T17:35:23.240Z,19.80
2023-02-07T17:40:28.105Z,21.08
2023-02-07T17:45:28.424Z,19.95
2023-02-07T17:50:29.450Z,21.02
2023-02-07T17:55:39.341Z,24.88
2023-02-07T18:00:38.916Z,20.88
2023-02-07T18:05:36.714Z,19.58
2023-02-07T18:10:35.240Z,16.38
2023-02-07T18:15:32.570Z,20.67
2023-02-07T18:20:31.530Z,17.70
2023-02-07T18:25:30.043Z,18.80
2023-02-07T18:30:28.573Z,17.75
2023-02-07T18:35:25.458Z,19.08
2023-02-07T18:40:22.342Z,15.77
2023-02-07T18:45:19.437Z,15.25
2023-02-07T18:50:19.062Z,21.77
2023-02-07T18:55:16.082Z,19.00
2023-02-07T19:00:14.069Z,17.55
2023-02-07T19:05:10.882Z,20.38
2023-02-07T19:10:14.867Z,14.20
2023-02-07T19:15:11.914Z,16.35
2023-02-07T19:20:13.356Z,14.93
2023-02-07T19:25:12.633Z,18.65
2023-02-07T19:30:12.530Z,20.02
2023-02-07T19:35:09.344Z,20.33
2023-02-07T19:40:07.008Z,23.98
2023-02-07T19:45:06.406Z,20.88
2023-02-07T19:50:03.704Z,22.83
2023-02-07T19:55:00.683Z,22.20
2023-02-07T19:59:57.689Z,19.15
2023-02-07T20:04:55.307Z,20.85
2023-02-07T20:09:52.262Z,21.10
2023-02-07T20:14:49.360Z,23.55
2023-02-07T20:19:46.595Z,21.42
2023-02-07T20:24:44.487Z,22.75
2023-02-07T20:29:41.332Z,22.90
2023-02-07T20:34:40.214Z,23.15
2023-02-07T20:39:37.768Z,26.60
2023-02-07T20:44:35.313Z,27.40
2023-02-07T20:49:32.256Z,30.63
2023-02-07T20:54:30.379Z,32.95
2023-02-07T20:59:28.805Z,25.77
2023-02-07T21:04:26.997Z,33.40
2023-02-07T21:09:23.882Z,30.67
2023-02-07T21:14:24.971Z,30.48
2023-02-07T21:19:24.683Z,28.95
2023-02-07T21:24:22.254Z,37.63
2023-02-07T21:29:20.385Z,38.80
2023-02-07T21:34:20.428Z,31.35
2023-02-07T21:39:17.998Z,32.08
2023-02-07T21:44:15.961Z,34.85
2023-02-07T21:49:15.579Z,31.45
2023-02-07T21:54:12.786Z,35.70
2023-02-07T21:59:12.709Z,32.75
2023-02-07T22:04:10.802Z,31.40
2023-02-07T22:09:12.486Z,33.70
2023-02-07T22:14:10.724Z,35.05
2023-02-07T22:19:12.667Z,31.00
2023-02-07T22:24:11.650Z,29.48
2023-02-07T22:29:09.723Z,34.20
2023-02-07T22:34:08.372Z,33.05
2023-02-07T22:39:07.527Z,28.98
2023-02-07T22:44:05.834Z,30.17
2023-02-07T22:49:02.953Z,37.25
2023-02-07T22:54:04.982Z,32.00
2023-02-07T22:59:01.918Z,34.70
2023-02-07T23:04:01.086Z,33.13
2023-02-07T23:08:58.244Z,32.47
2023-02-07T23:13:55.166Z,30.08
2023-02-07T23:18:55.563Z,33.45
2023-02-07T23:23:54.224Z,27.90
2023-02-07T23:28:51.525Z,26.55
2023-02-07T23:33:48.425Z,31.27
2023-02-07T23:38:45.857Z,32.40
2023-02-07T23:43:43.449Z,32.40
2023-02-07T23:48:40.308Z,31.80
2023-02-07T23:53:37.147Z,33.60
2023-02-07T23:58:34.510Z,31.08
